KSCK/SCK METAR and TAF weather

Enter ICAO airport designator
Station Type Date Time Source
KSCK METAR 2022/12/05 13:55 UTC NOAA

KSCK 051355Z AUTO 13003KT 10SM FEW110 08/07 A3003 RMK AO2 SLP169 T00830067


Station Type Date Time Source
KSCK Decoded METAR 2022/12/05 13:55 UTC NOAA

STOCKTON METROPOLITAN AIRPORT , CA, United States (KSCK) 37-54N 121-14W 10M
Dec 05, 2022 - 08:55 AM EST / 2022.12.05 1355 UTC
Wind: from the SE (130 degrees) at 3 MPH (3 KT):0
Visibility: 10 mile(s):0
Sky conditions: mostly clear
Temperature: 46.9 F (8.3 C)
Dew Point: 44.1 F (6.7 C)
Relative Humidity: 89%
Pressure (altimeter): 30.03 in. Hg (1016 hPa)
ob: KSCK 051355Z AUTO 13003KT 10SM FEW110 08/07 A3003 RMK AO2 SLP169 T00830067
cycle: 14

Station Type Date Time Source
KSCK TAF 2022/12/05 12:30 UTC NOAA

TAF KSCK 051128Z 0512/0612 16007KT P6SM VCSH SCT050 BKN100

Example: see airport list